Time,TemperatureF,DewpointF,PressureIn,WindDirection,WindDirectionDegrees,WindSpeedMPH,WindSpeedGustMPH,Humidity,HourlyPrecipIn,Conditions,Clouds,dailyrainin,SoftwareType,DateUTC
2013-05-30 00:00:00,43.0,28.0,-100.00,West,280,7.0,9.0,54,0.00,,,0.16,,2013-05-30 06:00:00,
2013-05-30 00:32:00,43.0,28.0,-100.00,West,280,7.0,9.0,54,0.00,,,0.16,,2013-05-30 06:32:00,
2013-05-30 00:42:00,43.0,28.0,-100.00,West,280,7.0,9.0,54,0.00,,,0.16,,2013-05-30 06:42:00,
2013-05-30 00:52:00,43.0,28.0,-100.00,West,280,7.0,9.0,54,0.00,,,0.16,,2013-05-30 06:52:00,
2013-05-30 01:00:00,41.0,28.0,-100.00,West,278,5.0,7.0,60,0.00,,,0.16,,2013-05-30 07:00:00,
2013-05-30 01:31:00,41.0,28.0,-100.00,West,278,5.0,7.0,60,0.00,,,0.16,,2013-05-30 07:31:00,
2013-05-30 01:42:00,41.0,28.0,-100.00,West,278,5.0,7.0,60,0.00,,,0.16,,2013-05-30 07:42:00,
2013-05-30 01:52:00,41.0,28.0,-100.00,West,278,5.0,7.0,60,0.00,,,0.16,,2013-05-30 07:52:00,
2013-05-30 02:00:00,43.0,28.0,-100.00,WNW,286,7.0,9.0,54,0.00,,,0.16,,2013-05-30 08:00:00,
2013-05-30 02:32:00,43.0,28.0,-100.00,WNW,286,7.0,9.0,54,0.00,,,0.16,,2013-05-30 08:32:00,
2013-05-30 02:42:00,43.0,28.0,-100.00,WNW,286,7.0,9.0,54,0.00,,,0.16,,2013-05-30 08:42:00,
2013-05-30 02:53:00,43.0,28.0,-100.00,WNW,286,7.0,9.0,54,0.00,,,0.16,,2013-05-30 08:53:00,
2013-05-30 03:00:00,44.0,28.0,-100.00,WSW,249,8.0,13.0,52,0.00,,,0.16,,2013-05-30 09:00:00,
2013-05-30 03:32:00,44.0,28.0,-100.00,WSW,249,8.0,13.0,52,0.00,,,0.16,,2013-05-30 09:32:00,
2013-05-30 03:42:00,44.0,28.0,-100.00,WSW,249,8.0,13.0,52,0.00,,,0.16,,2013-05-30 09:42:00,
2013-05-30 03:53:00,44.0,28.0,-100.00,WSW,249,8.0,13.0,52,0.00,,,0.16,,2013-05-30 09:53:00,
2013-05-30 04:00:00,42.0,26.0,-100.00,NW,320,3.0,4.0,52,0.00,,,0.16,,2013-05-30 10:00:00,
2013-05-30 04:32:00,42.0,26.0,-100.00,NW,320,3.0,4.0,52,0.00,,,0.16,,2013-05-30 10:32:00,
2013-05-30 04:42:00,42.0,26.0,-100.00,NW,320,3.0,4.0,52,0.00,,,0.16,,2013-05-30 10:42:00,
2013-05-30 04:52:00,42.0,26.0,-100.00,NW,320,3.0,4.0,52,0.00,,,0.16,,2013-05-30 10:52:00,
2013-05-30 05:00:00,40.0,26.0,-100.00,WSW,258,5.0,8.0,56,0.00,,,0.16,,2013-05-30 11:00:00,
2013-05-30 05:32:00,40.0,26.0,-100.00,WSW,258,5.0,8.0,56,0.00,,,0.16,,2013-05-30 11:32:00,
2013-05-30 05:42:00,40.0,26.0,-100.00,WSW,258,5.0,8.0,56,0.00,,,0.16,,2013-05-30 11:42:00,
2013-05-30 05:52:00,40.0,26.0,-100.00,WSW,258,5.0,8.0,56,0.00,,,0.16,,2013-05-30 11:52:00,
2013-05-30 06:00:00,42.0,25.0,-100.00,West,265,6.0,9.0,52,0.00,,,0.16,,2013-05-30 12:00:00,
2013-05-30 06:32:00,42.0,25.0,-100.00,West,265,6.0,9.0,52,0.00,,,0.16,,2013-05-30 12:32:00,
2013-05-30 06:42:00,42.0,25.0,-100.00,West,265,6.0,9.0,52,0.00,,,0.16,,2013-05-30 12:42:00,
2013-05-30 06:52:00,42.0,25.0,-100.00,West,265,6.0,9.0,52,0.00,,,0.16,,2013-05-30 12:52:00,
2013-05-30 07:00:00,45.0,25.0,-100.00,WSW,237,13.0,22.0,45,0.00,,,0.16,,2013-05-30 13:00:00,
2013-05-30 07:32:00,45.0,25.0,-100.00,WSW,237,13.0,22.0,45,0.00,,,0.16,,2013-05-30 13:32:00,
2013-05-30 07:42:00,45.0,25.0,-100.00,WSW,237,13.0,22.0,45,0.00,,,0.16,,2013-05-30 13:42:00,
2013-05-30 07:52:00,45.0,25.0,-100.00,WSW,237,13.0,22.0,45,0.00,,,0.16,,2013-05-30 13:52:00,